createdAt,value
2023-11-19T00:02:40.780Z,95917.72
2023-11-19T00:07:44.393Z,95935.66
2023-11-19T00:12:49.379Z,95936.53
2023-11-19T00:17:52.294Z,95915.03
2023-11-19T00:22:58.137Z,95926.84
2023-11-19T00:28:01.193Z,95934.88
2023-11-19T00:33:04.011Z,95937.50
2023-11-19T00:38:06.785Z,95915.09
2023-11-19T00:43:10.393Z,95930.19
2023-11-19T00:48:13.470Z,95926.53
2023-11-19T00:53:15.763Z,95917.09
2023-11-19T00:58:19.463Z,95923.66
2023-11-19T01:03:22.635Z,95928.91
2023-11-19T01:08:26.052Z,95909.44
2023-11-19T01:13:28.785Z,95902.75
2023-11-19T01:18:31.436Z,95912.38
2023-11-19T01:23:35.479Z,95896.19
2023-11-19T01:28:51.893Z,95921.50
2023-11-19T01:33:55.669Z,95933.25
2023-11-19T01:38:58.496Z,95920.41
2023-11-19T01:44:01.703Z,95931.66
2023-11-19T01:49:05.331Z,95936.63
2023-11-19T01:54:09.705Z,95894.56
2023-11-19T01:59:15.197Z,95917.91
2023-11-19T02:04:18.274Z,95904.91
2023-11-19T02:09:21.432Z,95901.13
2023-11-19T02:14:27.682Z,95914.06
2023-11-19T02:19:30.609Z,95925.28
2023-11-19T02:24:35.691Z,95916.00
2023-11-19T02:29:38.973Z,95913.31
2023-11-19T02:34:41.833Z,95932.88
2023-11-19T02:39:45.353Z,95926.78
2023-11-19T02:44:47.776Z,95920.88
2023-11-19T02:49:50.116Z,95920.03
2023-11-19T02:54:53.238Z,95933.75
2023-11-19T02:59:57.561Z,95943.13
2023-11-19T03:05:01.295Z,95938.97
2023-11-19T03:10:07.024Z,95926.16
2023-11-19T03:15:13.634Z,95956.69
2023-11-19T03:20:18.792Z,95944.78
2023-11-19T03:25:21.602Z,95933.53
2023-11-19T03:30:34.241Z,95942.50
2023-11-19T03:35:37.612Z,95963.66
2023-11-19T03:40:40.410Z,95982.75
2023-11-19T03:45:42.681Z,95960.28
2023-11-19T03:50:45.666Z,95971.44
2023-11-19T03:55:48.567Z,95977.28
2023-11-19T04:00:51.004Z,96000.13
2023-11-19T04:05:53.928Z,95990.56
2023-11-19T04:10:56.753Z,96014.03
2023-11-19T04:15:59.631Z,96013.03
2023-11-19T04:21:02.374Z,96005.69
2023-11-19T04:31:11.342Z,96024.31
2023-11-19T04:36:20.442Z,96031.97
2023-11-19T04:41:23.284Z,96041.91
2023-11-19T04:46:26.193Z,96033.22
2023-11-19T04:51:28.528Z,96064.19
2023-11-19T04:56:31.236Z,96053.13
2023-11-19T05:01:34.910Z,96063.53
2023-11-19T05:06:39.026Z,96062.69
2023-11-19T05:16:47.740Z,96071.88
2023-11-19T05:21:53.753Z,96091.56
2023-11-19T05:26:56.026Z,96089.97
2023-11-19T05:31:58.878Z,96097.91
2023-11-19T05:37:01.631Z,96116.75
2023-11-19T05:42:04.165Z,96122.06
2023-11-19T05:47:07.219Z,96104.25
2023-11-19T05:52:11.116Z,96120.75
2023-11-19T05:57:15.297Z,96099.81
2023-11-19T06:02:17.843Z,96118.16
2023-11-19T06:07:21.327Z,96117.16
2023-11-19T06:12:24.624Z,96132.97
2023-11-19T06:17:27.334Z,96117.81
2023-11-19T06:22:30.183Z,96130.59
2023-11-19T06:27:32.889Z,96120.25
2023-11-19T06:32:35.299Z,96137.50
2023-11-19T06:37:40.796Z,96122.88
2023-11-19T06:42:43.721Z,96115.66
2023-11-19T06:47:46.464Z,96151.97
2023-11-19T06:52:49.349Z,96149.63
2023-11-19T06:57:52.059Z,96167.47
2023-11-19T07:02:55.111Z,96142.00
2023-11-19T07:07:58.032Z,96166.41
2023-11-19T07:13:01.600Z,96161.13
2023-11-19T07:18:04.805Z,96169.31
2023-11-19T07:23:08.449Z,96182.13
2023-11-19T07:28:11.366Z,96182.56
2023-11-19T07:33:15.088Z,96182.22
2023-11-19T07:38:17.696Z,96193.75
2023-11-19T07:43:20.548Z,96202.06
2023-11-19T07:48:24.948Z,96219.75
2023-11-19T07:53:27.752Z,96231.06
2023-11-19T07:58:30.469Z,96234.47
2023-11-19T08:03:33.641Z,96213.75
2023-11-19T08:08:37.035Z,96226.25
2023-11-19T08:13:39.853Z,96241.06
2023-11-19T08:18:44.960Z,96245.31
2023-11-19T08:23:47.537Z,96226.78
2023-11-19T08:28:50.466Z,96236.00
2023-11-19T08:33:53.391Z,96216.00
2023-11-19T08:38:56.337Z,96221.88
2023-11-19T08:43:59.249Z,96197.94
2023-11-19T08:49:02.037Z,96195.41
2023-11-19T08:54:05.180Z,96184.75
2023-11-19T08:59:07.974Z,96160.72
2023-11-19T09:04:10.779Z,96179.22
2023-11-19T09:09:13.765Z,96157.16
2023-11-19T09:14:16.972Z,96161.16
2023-11-19T09:19:19.738Z,96156.75
2023-11-19T09:24:22.490Z,96144.91
2023-11-19T09:29:25.378Z,96125.56
2023-11-19T09:34:28.048Z,96136.41
2023-11-19T09:39:30.619Z,96134.31
2023-11-19T09:44:34.184Z,96143.28
2023-11-19T09:49:37.738Z,96122.97
2023-11-19T09:54:41.746Z,96140.75
2023-11-19T09:59:45.730Z,96139.47
2023-11-19T10:04:50.124Z,96152.84
2023-11-19T10:09:52.785Z,96141.03
2023-11-19T10:14:59.766Z,96149.75
2023-11-19T10:20:06.126Z,96136.13
2023-11-19T10:25:35.704Z,96149.78
2023-11-19T10:30:38.611Z,96142.97
2023-11-19T10:36:02.596Z,96142.66
2023-11-19T10:41:06.741Z,96127.13
2023-11-19T10:46:14.629Z,96147.09
2023-11-19T10:51:25.293Z,96148.06
2023-11-19T10:56:35.942Z,96155.22
2023-11-19T11:01:46.778Z,96156.91
2023-11-19T11:06:51.606Z,96164.69
2023-11-19T11:11:56.086Z,96163.88
2023-11-19T11:17:00.355Z,96179.06
2023-11-19T11:22:06.285Z,96163.25
2023-11-19T11:27:31.081Z,96172.09
2023-11-19T11:32:55.606Z,96163.78
2023-11-19T11:38:05.095Z,96179.00
2023-11-19T11:43:47.628Z,96167.47
2023-11-19T11:48:52.139Z,96167.88
2023-11-19T11:53:55.975Z,96153.56
2023-11-19T11:59:01.002Z,96155.53
2023-11-19T12:04:06.456Z,96129.16
2023-11-19T12:09:09.644Z,96147.97
2023-11-19T12:14:11.938Z,96118.16
2023-11-19T12:19:14.974Z,96125.78
2023-11-19T12:24:18.647Z,96136.59
2023-11-19T12:29:22.450Z,96124.00
2023-11-19T12:34:25.947Z,96096.53
2023-11-19T12:39:34.018Z,96120.25
2023-11-19T12:44:36.708Z,96102.47
2023-11-19T12:49:38.980Z,96096.19
2023-11-19T12:54:41.803Z,96088.59
2023-11-19T12:59:44.529Z,96090.44
2023-11-19T13:04:47.881Z,96076.91
2023-11-19T13:09:50.678Z,96061.97
2023-11-19T13:14:54.700Z,96011.75
2023-11-19T13:19:58.471Z,96032.16
2023-11-19T13:25:02.458Z,96049.78
2023-11-19T13:30:08.408Z,96049.47
2023-11-19T13:35:11.256Z,96035.81
2023-11-19T13:40:17.259Z,96032.50
2023-11-19T13:45:22.151Z,96038.28
2023-11-19T13:50:24.953Z,96039.69
2023-11-19T13:55:28.990Z,96029.47
2023-11-19T14:00:31.880Z,96036.50
2023-11-19T14:05:38.147Z,96025.91
2023-11-19T14:10:41.610Z,96027.34
2023-11-19T14:15:45.190Z,96035.63
2023-11-19T14:20:48.795Z,96059.84
2023-11-19T14:25:52.081Z,96041.38
2023-11-19T14:30:58.553Z,96083.84
2023-11-19T14:36:01.488Z,96069.03
2023-11-19T14:41:04.369Z,96087.97
2023-11-19T14:46:08.276Z,96120.91
2023-11-19T14:51:11.078Z,96114.31
2023-11-19T14:56:17.511Z,96076.00
2023-11-19T15:01:20.637Z,96109.19
2023-11-19T15:06:28.635Z,96102.94
2023-11-19T15:11:31.542Z,96106.53
2023-11-19T15:16:36.024Z,96095.41
2023-11-19T15:21:38.736Z,96099.19
2023-11-19T15:26:41.559Z,96109.22
2023-11-19T15:31:44.312Z,96119.56
2023-11-19T15:36:47.924Z,96136.25
2023-11-19T15:41:50.584Z,96152.34
2023-11-19T15:46:55.114Z,96153.72
2023-11-19T15:51:57.693Z,96160.47
2023-11-19T15:57:00.464Z,96170.72
2023-11-19T16:02:03.419Z,96166.03
2023-11-19T16:07:06.891Z,96160.84
2023-11-19T16:12:10.433Z,96177.63
2023-11-19T16:17:13.281Z,96161.97
2023-11-19T16:22:16.259Z,96126.25
2023-11-19T16:32:24.555Z,96167.19
2023-11-19T16:37:27.605Z,96147.56
2023-11-19T16:42:30.514Z,96167.75
2023-11-19T16:47:34.354Z,96157.28
2023-11-19T16:52:37.195Z,96159.38
2023-11-19T16:57:45.294Z,96161.53
2023-11-19T17:07:53.936Z,96153.78
2023-11-19T17:12:56.737Z,96155.97
2023-11-19T17:17:59.125Z,96149.88
2023-11-19T17:23:06.579Z,96150.34
2023-11-19T17:28:10.758Z,96172.19
2023-11-19T17:33:12.998Z,96168.38
2023-11-19T17:43:21.401Z,96162.16
2023-11-19T17:48:24.111Z,96169.19
2023-11-19T17:53:27.101Z,96155.34
2023-11-19T17:58:30.005Z,96148.38
2023-11-19T18:03:33.734Z,96137.63
2023-11-19T18:08:37.858Z,96138.75
2023-11-19T18:13:40.272Z,96133.28
2023-11-19T18:18:43.230Z,96155.75
2023-11-19T18:23:47.249Z,96131.13
2023-11-19T18:28:50.431Z,96143.88
2023-11-19T18:33:52.822Z,96158.47
2023-11-19T18:38:55.260Z,96148.09
2023-11-19T18:43:58.066Z,96162.91
2023-11-19T18:49:01.800Z,96165.50
2023-11-19T18:54:04.992Z,96138.59
2023-11-19T18:59:13.241Z,96151.03
2023-11-19T19:04:16.174Z,96172.28
2023-11-19T19:09:23.221Z,96150.44
2023-11-19T19:14:26.085Z,96166.75
2023-11-19T19:19:29.392Z,96152.31
2023-11-19T19:24:32.339Z,96160.50
2023-11-19T19:29:35.519Z,96152.34
2023-11-19T19:34:38.418Z,96127.66
2023-11-19T19:39:41.174Z,96128.91
2023-11-19T19:44:43.932Z,96131.28
2023-11-19T19:49:46.872Z,96138.16
2023-11-19T19:54:49.237Z,96134.81
2023-11-19T19:59:51.966Z,96128.19
2023-11-19T20:10:00.281Z,96089.75
2023-11-19T20:15:02.772Z,96113.59
2023-11-19T20:20:07.389Z,96112.19
2023-11-19T20:25:11.368Z,96123.69
2023-11-19T20:30:14.567Z,96134.94
2023-11-19T20:35:17.305Z,96088.44
2023-11-19T20:40:20.826Z,96115.53
2023-11-19T20:45:23.581Z,96106.34
2023-11-19T20:50:27.466Z,96121.09
2023-11-19T20:55:31.734Z,96124.41
2023-11-19T21:00:38.478Z,96117.19
2023-11-19T21:05:41.405Z,96094.41
2023-11-19T21:10:44.138Z,96085.84
2023-11-19T21:15:54.452Z,96082.34
2023-11-19T21:21:01.533Z,96079.56
2023-11-19T21:26:05.123Z,96086.50
2023-11-19T21:31:07.665Z,96093.91
2023-11-19T21:36:10.776Z,96062.06
2023-11-19T21:41:15.403Z,96091.28
2023-11-19T21:46:18.616Z,96071.66
2023-11-19T21:51:20.856Z,96064.50
2023-11-19T21:56:23.487Z,96065.28
2023-11-19T22:01:26.335Z,96063.53
2023-11-19T22:06:29.359Z,96069.34
2023-11-19T22:11:33.806Z,96058.72
2023-11-19T22:16:36.678Z,96070.16
2023-11-19T22:21:39.750Z,96087.34
2023-11-19T22:26:42.601Z,96064.34
2023-11-19T22:31:45.461Z,96078.06
2023-11-19T22:36:47.779Z,96035.63
2023-11-19T22:41:50.434Z,96083.19
2023-11-19T22:46:53.663Z,96069.44
2023-11-19T22:51:56.472Z,96067.75
2023-11-19T22:56:59.566Z,96064.22
2023-11-19T23:02:02.401Z,96002.22
2023-11-19T23:07:05.393Z,96068.56
2023-11-19T23:12:08.838Z,96050.47
2023-11-19T23:17:17.949Z,96065.47
2023-11-19T23:27:27.032Z,96018.38
2023-11-19T23:32:30.917Z,96032.63
2023-11-19T23:37:33.674Z,96065.25
2023-11-19T23:42:36.687Z,96055.88
2023-11-19T23:47:39.750Z,96036.75
2023-11-19T23:52:42.099Z,96049.16
2023-11-19T23:57:45.446Z,96023.53
